Cascade, MT

7:38 PM MST on December 26, 2014 (GMT -0700)
Trout Montana Fly Shop, Cascade, MT | Change Station
CLOSE
Current Station
Personal Weather Station
Location: Cascade, MT
Elevation: 3376 ft
Nearby Weather Stations
Active Advisory: Winter Storm Watch

Elev 3376 ft 47.27 °N, 111.70 °W | Updated 10 minutes ago

Clear
Clear
23.8 °F
Feels Like 24 °F
N
3.0
Wind Variable Wind from South
Gusts 7.0 mph

Today
High -- | Low -- °F
--% Chance of Precip.
Yesterday
High -- | Low -- °F
Precip. -- in
8:12 AM 4:42 PM
Waxing Crescent, 31% visible
Pressure 30.27 in
Visibility 10.0 miles
Clouds Clear
Windchill 24 °F
Dew Point 17 °F
Humidity 74%
Rainfall 0.07 in
Snow Depth Not available.
UV 0 out of 12
Pollen .10 out of 12
Air Quality Not available.
Flu Activity Not available.
METAR KGTF 270153Z 20012KT 10SM CLR M10/M13 A3007 RMK AO2 SLP248 T11001128 $

More Conditions Fewer Conditions

Pressure 30.27 in
Visibility 10.0 miles
Clouds Clear
Windchill 24 °F
Dew Point 17 °F
Humidity 74%
Rainfall 0.07 in
Snow Depth Not available.
UV 0 out of 12
Pollen .10 out of 12
Air Quality Not available.
Flu Activity Not available.
METAR KGTF 270153Z 20012KT 10SM CLR M10/M13 A3007 RMK AO2 SLP248 T11001128 $

More Conditions Fewer Conditions

10-Day Weather Forecast

Almanac

Astronomy

Dec. 26, 2014 Rise Set
Actual Time
Civil Twilight
Nautical Twilight
Astronomical Twilight
Moon
Length of Visible Light
Length of Day
Tomorrow will be .
, % of the Moon is Illuminated

Today's Extremes

State Highs State Lows

Community

WunderPhotos

Upload Photos

1,780,815 photos uploaded!

WunderBlogs® & News

Nearby

Air Quality

  Air Quality AQ Index Pollutant
Not available.

Snow Depth

Station Depth Elevation

Earthquake Activity

City Distance Mag. Time & Date
Minimum magnitude displayed is 2.5.

Coastal Water Temperatures

Place Temperature

Nearby Weather Stations